Khosta (Sochi), Russia
Current Conditions -  °F | °C
As of 7:30 AM on Friday 19 Dec 2014 (Local Time) from URSS Reporting Station
Rain Showers Rain Showers  
Wind Chill: 48°   Ceiling: 5000
Heat Index: 48°   Visibility: 6mi
Dew Point: 45°   Wind: 0mph
Humidity: 87%   Direction: NA
Pressure: 30.09"   Gusts: NA
Location:  43.57°N, 39.75°E
Report Text: URSS 190430Z 00000MPS 9999 -SHRA OVC050CB 09/07 Q1019 NOSIG RMKR02/05003MPS QFE763 06290050 02//////
Loading
Personal Weather Stations






























Interactive Weather Map New forecast layout! Learn more

10-Day Weather Forecast

Advertisements
Track Severe Weather on mobile